Time;durP1;ratioP1;P1;durP2;ratioP2;P2;SDS_P1;SDS_P2;PMS_P1;PMS_P2;Temp;Humidity;BMP_temperature;BMP_pressure;BME280_temperature;BME280_humidity;BME280_pressure;Samples;Min_cycle;Max_cycle;Signal;HPM_P1;HPM_P2
2023/03/18 00:01:17;;;;;;;8.63;2.70;;;11.70;99.90;;;;;;5053750;28;20559;-58
2023/03/18 00:03:44;;;;;;;8.27;3.10;;;11.70;99.90;;;;;;5071504;28;20732;-58
2023/03/18 00:06:17;;;;;;;7.30;2.60;;;11.60;99.90;;;;;;5070899;28;20394;-58
2023/03/18 00:08:44;;;;;;;8.27;2.78;;;11.60;99.90;;;;;;5069502;28;20401;-58
2023/03/18 00:11:11;;;;;;;7.30;3.07;;;11.50;99.90;;;;;;5071704;28;20729;-58
2023/03/18 00:13:38;;;;;;;7.50;2.30;;;11.50;99.90;;;;;;5071246;28;20415;-58
2023/03/18 00:16:07;;;;;;;6.55;2.58;;;11.40;99.90;;;;;;5053902;28;20753;-58
2023/03/18 00:18:34;;;;;;;7.63;2.15;;;11.40;99.90;;;;;;5070943;28;20438;-58
2023/03/18 00:21:00;;;;;;;7.45;2.60;;;11.30;99.90;;;;;;5071870;28;20391;-58
2023/03/18 00:23:27;;;;;;;8.02;2.20;;;11.30;99.90;;;;;;5070601;28;20803;-58
2023/03/18 00:25:55;;;;;;;7.32;2.70;;;11.20;99.90;;;;;;5054127;28;20389;-58
2023/03/18 00:28:21;;;;;;;8.20;2.20;;;11.10;99.90;;;;;;5050864;28;20462;-61
2023/03/18 00:30:48;;;;;;;8.48;2.35;;;11.00;99.90;;;;;;5051542;28;20381;-58
2023/03/18 00:33:15;;;;;;;7.10;2.60;;;10.90;99.90;;;;;;5051234;28;20410;-57
2023/03/18 00:35:41;;;;;;;7.20;1.95;;;10.90;99.90;;;;;;5050689;28;20478;-58
2023/03/18 00:38:08;;;;;;;5.90;1.63;;;10.90;99.90;;;;;;5051371;28;20377;-57
2023/03/18 00:40:52;;;;;;;6.07;1.60;;;10.90;99.90;;;;;;5057331;28;20429;-58
2023/03/18 00:43:21;;;;;;;7.75;2.20;;;10.70;99.90;;;;;;5051196;28;20481;-58
2023/03/18 00:45:49;;;;;;;7.03;2.50;;;10.70;99.90;;;;;;5051104;28;20415;-57
2023/03/18 00:48:15;;;;;;;7.50;1.88;;;10.60;99.90;;;;;;5051468;28;20401;-58
2023/03/18 00:50:41;;;;;;;7.35;2.05;;;10.50;99.90;;;;;;5050385;28;20413;-57
2023/03/18 00:53:07;;;;;;;6.97;1.83;;;10.40;99.90;;;;;;5051188;28;20416;-57
2023/03/18 00:55:33;;;;;;;5.70;1.70;;;10.30;99.90;;;;;;5058561;28;20395;-58
2023/03/18 00:57:59;;;;;;;7.70;1.80;;;10.20;99.90;;;;;;5070576;28;20403;-57
2023/03/18 01:00:25;;;;;;;6.93;1.60;;;10.20;99.90;;;;;;5070233;28;20403;-57
2023/03/18 01:02:52;;;;;;;7.60;1.70;;;10.20;99.90;;;;;;5069770;28;20395;-58
2023/03/18 01:05:19;;;;;;;9.30;2.08;;;10.30;99.90;;;;;;5070922;28;20384;-57
2023/03/18 01:07:45;;;;;;;7.10;1.50;;;10.30;99.90;;;;;;5070161;28;20391;-57
2023/03/18 01:10:11;;;;;;;6.85;1.80;;;10.50;99.90;;;;;;5062796;28;20389;-57
2023/03/18 01:12:39;;;;;;;6.78;1.73;;;10.50;99.90;;;;;;5050342;28;20402;-57
2023/03/18 01:15:11;;;;;;;8.00;1.98;;;10.70;99.90;;;;;;5050752;28;20394;-57
2023/03/18 01:17:37;;;;;;;6.40;1.80;;;10.70;99.90;;;;;;5049986;28;20388;-58
2023/03/18 01:20:03;;;;;;;7.93;1.80;;;10.70;99.90;;;;;;5050427;28;20378;-57
2023/03/18 01:22:29;;;;;;;8.35;1.70;;;10.70;99.90;;;;;;5049604;28;20405;-58
2023/03/18 01:24:56;;;;;;;7.47;1.80;;;10.70;99.90;;;;;;5051371;28;20704;-57
2023/03/18 01:27:21;;;;;;;5.60;1.50;;;10.70;99.90;;;;;;5049654;28;20506;-61
2023/03/18 01:29:47;;;;;;;6.18;1.33;;;10.60;99.90;;;;;;5032188;28;20428;-58
2023/03/18 01:32:13;;;;;;;5.90;1.50;;;10.60;99.90;;;;;;5050648;28;20840;-57
2023/03/18 01:34:40;;;;;;;5.35;1.20;;;10.60;99.90;;;;;;5049753;28;20420;-57
2023/03/18 01:37:06;;;;;;;6.03;1.60;;;11.60;99.90;;;;;;5050267;28;20394;-58
2023/03/18 01:39:33;;;;;;;5.75;1.48;;;10.70;99.90;;;;;;5050173;28;20381;-58
2023/03/18 01:41:59;;;;;;;5.85;1.50;;;10.90;99.90;;;;;;5070140;28;20384;-58
2023/03/18 01:44:26;;;;;;;7.47;1.52;;;10.90;99.90;;;;;;5069603;28;20407;-58
2023/03/18 01:46:52;;;;;;;7.30;1.70;;;10.90;99.90;;;;;;5070235;28;20380;-58
2023/03/18 01:49:33;;;;;;;5.45;1.40;;;10.90;99.90;;;;;;5070183;28;20412;-57
2023/03/18 01:52:04;;;;;;;5.30;1.30;;;10.90;99.90;;;;;;5070067;28;20394;-58
2023/03/18 01:54:34;;;;;;;5.60;1.20;;;10.90;99.90;;;;;;5068656;28;20410;-59
2023/03/18 01:57:02;;;;;;;5.00;1.23;;;10.80;99.90;;;;;;5070158;28;20556;-57
2023/03/18 01:59:31;;;;;;;5.50;1.35;;;10.90;99.90;;;;;;5068835;28;20380;-59
2023/03/18 02:02:08;;;;;;;6.18;1.40;;;10.80;99.90;;;;;;5069967;28;20380;-58
2023/03/18 02:04:41;;;;;;;6.63;1.67;;;10.80;99.90;;;;;;5068828;28;20411;-58
2023/03/18 02:07:12;;;;;;;6.18;1.70;;;10.70;99.90;;;;;;5070107;28;20506;-58
2023/03/18 02:09:38;;;;;;;7.07;1.58;;;10.80;99.90;;;;;;5065342;28;20386;-58
2023/03/18 02:12:05;;;;;;;6.00;1.50;;;10.80;99.90;;;;;;5052850;28;20394;-58
2023/03/18 02:14:31;;;;;;;6.07;1.73;;;10.70;99.90;;;;;;5068914;28;20480;-57
2023/03/18 02:17:02;;;;;;;6.95;1.90;;;10.70;99.90;;;;;;5069636;28;20473;-58
2023/03/18 02:19:46;;;;;;;6.10;1.48;;;10.90;99.90;;;;;;5068755;28;20861;-58
2023/03/18 02:22:32;;;;;;;6.40;1.67;;;10.80;99.90;;;;;;5066661;28;20891;-58
2023/03/18 02:25:16;;;;;;;6.70;1.23;;;10.80;99.90;;;;;;5049425;28;20416;-58
2023/03/18 02:27:47;;;;;;;8.32;1.90;;;10.90;99.90;;;;;;5048492;28;20404;-57
2023/03/18 02:30:19;;;;;;;5.43;1.52;;;10.80;99.90;;;;;;5049942;28;20389;-58
2023/03/18 02:32:49;;;;;;;5.30;1.20;;;10.90;99.90;;;;;;5047730;28;20421;-57
2023/03/18 02:35:15;;;;;;;5.95;1.67;;;10.80;99.90;;;;;;5049525;28;20393;-58
2023/03/18 02:37:40;;;;;;;6.87;1.30;;;10.70;99.90;;;;;;5035142;28;20969;-58
2023/03/18 02:40:23;;;;;;;5.43;1.30;;;10.60;99.90;;;;;;5069335;28;20402;-58
2023/03/18 02:42:50;;;;;;;6.85;1.50;;;10.50;99.90;;;;;;5069362;28;20522;-57
2023/03/18 02:45:34;;;;;;;5.27;1.20;;;10.50;99.90;;;;;;5069618;28;20372;-58
2023/03/18 02:48:03;;;;;;;6.32;1.20;;;10.40;99.90;;;;;;5069555;28;20412;-58
2023/03/18 02:50:29;;;;;;;6.30;1.30;;;10.30;99.90;;;;;;5068594;28;20844;-57
2023/03/18 02:52:55;;;;;;;5.43;1.40;;;10.30;99.90;;;;;;5069146;28;20407;-58
2023/03/18 02:55:21;;;;;;;5.28;1.02;;;10.20;99.90;;;;;;5069103;28;20384;-61
2023/03/18 02:57:46;;;;;;;5.93;1.40;;;10.30;99.90;;;;;;5068826;28;20392;-58
2023/03/18 03:00:12;;;;;;;8.20;1.30;;;10.30;99.90;;;;;;5069241;28;20387;-57
2023/03/18 03:02:38;;;;;;;6.40;1.67;;;10.20;99.90;;;;;;5069024;28;20485;-58
2023/03/18 03:05:04;;;;;;;5.78;1.40;;;10.20;99.90;;;;;;5069254;28;20853;-58
2023/03/18 03:07:29;;;;;;;5.13;1.20;;;10.10;99.90;;;;;;5059449;28;20429;-58
2023/03/18 03:09:55;;;;;;;7.47;1.63;;;10.10;99.90;;;;;;5048914;28;20425;-57
2023/03/18 03:12:21;;;;;;;5.57;1.45;;;10.60;99.90;;;;;;5049097;28;20455;-58
2023/03/18 03:14:47;;;;;;;9.40;1.52;;;10.20;99.90;;;;;;5048549;28;20420;-57
2023/03/18 03:17:14;;;;;;;6.13;1.50;;;10.20;99.90;;;;;;5048878;28;20850;-58
2023/03/18 03:19:39;;;;;;;5.30;1.20;;;10.10;99.90;;;;;;5048178;28;20389;-57
2023/03/18 03:22:05;;;;;;;7.70;1.63;;;10.10;99.90;;;;;;5049283;28;20858;-57
2023/03/18 03:24:31;;;;;;;6.35;1.40;;;11.60;99.90;;;;;;5048340;28;20393;-57
2023/03/18 03:26:57;;;;;;;7.00;1.50;;;10.00;99.90;;;;;;5050858;28;20377;-58
2023/03/18 03:29:22;;;;;;;5.20;1.20;;;9.90;99.90;;;;;;5052888;28;20475;-61
2023/03/18 03:31:48;;;;;;;7.17;1.33;;;8.90;99.90;;;;;;5064181;28;20410;-58
2023/03/18 03:34:14;;;;;;;6.40;1.50;;;9.90;99.90;;;;;;5072829;28;20435;-57
2023/03/18 03:36:39;;;;;;;5.70;1.47;;;9.80;99.90;;;;;;5072063;28;20449;-57
2023/03/18 03:39:05;;;;;;;6.30;1.50;;;9.80;99.90;;;;;;5072339;28;20468;-58
2023/03/18 03:41:31;;;;;;;5.20;1.30;;;9.70;99.90;;;;;;5071485;28;20386;-58
2023/03/18 03:43:56;;;;;;;5.60;1.50;;;9.70;99.90;;;;;;5072616;28;20423;-58
2023/03/18 03:46:22;;;;;;;5.90;1.50;;;9.70;99.90;;;;;;5064789;28;20739;-61
2023/03/18 03:48:48;;;;;;;6.20;1.50;;;9.70;99.90;;;;;;5051740;28;20391;-57
2023/03/18 03:51:14;;;;;;;6.80;1.60;;;9.70;99.90;;;;;;5052327;28;20384;-57
2023/03/18 03:53:40;;;;;;;6.50;1.80;;;9.60;99.90;;;;;;5051331;28;20413;-58
2023/03/18 03:56:08;;;;;;;6.13;1.30;;;9.60;99.90;;;;;;5052033;28;20389;-58
2023/03/18 03:58:34;;;;;;;5.53;1.30;;;9.50;99.90;;;;;;5051005;28;20401;-58
2023/03/18 04:01:00;;;;;;;5.35;1.10;;;9.40;99.90;;;;;;5051752;28;20381;-57
2023/03/18 04:03:27;;;;;;;5.75;1.38;;;9.50;99.90;;;;;;5051247;28;20443;-60
2023/03/18 04:05:53;;;;;;;6.15;1.48;;;9.50;99.90;;;;;;5052030;28;20871;-57
2023/03/18 04:08:19;;;;;;;6.87;1.60;;;10.50;99.90;;;;;;5051880;28;20527;-57
2023/03/18 04:10:45;;;;;;;5.13;1.25;;;9.40;99.90;;;;;;5051178;28;20669;-57
2023/03/18 04:13:11;;;;;;;7.55;1.38;;;9.40;99.90;;;;;;5052836;28;20437;-56
2023/03/18 04:15:36;;;;;;;6.97;1.17;;;9.40;99.90;;;;;;5065671;28;20944;-57
2023/03/18 04:18:05;;;;;;;8.40;1.20;;;9.40;99.90;;;;;;5071637;28;20446;-57
2023/03/18 04:20:33;;;;;;;5.30;1.30;;;9.40;99.90;;;;;;5069725;28;20372;-57
2023/03/18 04:22:59;;;;;;;6.33;1.70;;;9.50;99.90;;;;;;5051659;28;20398;-57
2023/03/18 04:25:25;;;;;;;5.60;1.25;;;9.60;99.90;;;;;;5051313;28;20434;-60
2023/03/18 04:27:51;;;;;;;6.80;1.50;;;9.70;99.90;;;;;;5051295;28;20882;-56
2023/03/18 04:30:19;;;;;;;6.40;1.30;;;9.70;99.90;;;;;;5063508;28;20415;-57
2023/03/18 04:32:45;;;;;;;5.78;1.20;;;9.90;99.90;;;;;;5070587;28;20474;-56
2023/03/18 04:35:11;;;;;;;6.32;1.40;;;10.10;99.90;;;;;;5071754;28;20392;-56
2023/03/18 04:37:37;;;;;;;5.90;1.60;;;10.20;99.90;;;;;;5070792;28;20376;-56
2023/03/18 04:40:05;;;;;;;5.40;1.37;;;10.30;99.90;;;;;;5071328;28;20453;-56
2023/03/18 04:42:30;;;;;;;5.82;1.30;;;10.40;99.90;;;;;;5070721;28;20376;-58
2023/03/18 04:44:56;;;;;;;5.75;1.52;;;10.40;99.90;;;;;;5065054;28;20939;-56
2023/03/18 04:47:22;;;;;;;6.70;1.27;;;10.50;99.90;;;;;;5071348;28;20382;-56
2023/03/18 04:49:48;;;;;;;7.27;1.93;;;10.50;99.90;;;;;;5071030;28;20392;-57
2023/03/18 04:52:14;;;;;;;5.78;1.40;;;10.40;99.90;;;;;;5071094;28;20441;-58
2023/03/18 04:54:39;;;;;;;6.30;1.60;;;10.30;99.90;;;;;;5069663;28;20418;-56
2023/03/18 04:57:06;;;;;;;5.82;1.20;;;10.30;99.90;;;;;;5071133;28;20404;-57
2023/03/18 04:59:32;;;;;;;5.73;1.60;;;10.20;99.90;;;;;;5070254;28;20384;-57
2023/03/18 05:01:58;;;;;;;7.10;1.40;;;10.10;99.90;;;;;;5054445;28;20389;-56
2023/03/18 05:04:24;;;;;;;6.93;1.50;;;10.00;99.90;;;;;;5050883;28;20377;-60
2023/03/18 05:06:51;;;;;;;6.57;1.40;;;9.90;99.90;;;;;;5051656;28;20464;-56
2023/03/18 05:09:17;;;;;;;6.32;1.70;;;9.70;99.90;;;;;;5070771;28;20380;-57
2023/03/18 05:11:43;;;;;;;6.07;1.40;;;9.60;99.90;;;;;;5070131;28;21204;-56
2023/03/18 05:14:08;;;;;;;6.00;1.60;;;9.50;99.90;;;;;;5069727;28;20494;-57
2023/03/18 05:16:35;;;;;;;5.97;1.60;;;9.50;99.90;;;;;;5051968;28;20454;-56
2023/03/18 05:19:01;;;;;;;6.70;1.90;;;9.30;99.90;;;;;;5050520;28;20381;-57
2023/03/18 05:21:27;;;;;;;6.68;2.03;;;9.30;99.90;;;;;;5054968;28;20394;-59
2023/03/18 05:23:53;;;;;;;7.70;2.60;;;9.30;99.90;;;;;;5060777;28;20502;-56
2023/03/18 05:26:18;;;;;;;6.90;1.90;;;9.20;99.90;;;;;;5059235;28;20476;-56
2023/03/18 05:28:44;;;;;;;8.25;2.47;;;9.10;99.90;;;;;;5058356;28;20408;-57
2023/03/18 05:31:10;;;;;;;9.00;2.40;;;9.00;99.90;;;;;;5042370;28;20507;-59
2023/03/18 05:33:36;;;;;;;6.57;2.40;;;9.00;99.90;;;;;;5058025;28;20409;-56
2023/03/18 05:36:03;;;;;;;8.20;2.40;;;9.10;99.90;;;;;;5060388;28;21893;-57
2023/03/18 05:38:29;;;;;;;9.55;2.80;;;9.10;99.90;;;;;;5039605;28;20520;-57
2023/03/18 05:40:55;;;;;;;8.20;2.60;;;9.00;99.90;;;;;;5056498;28;20435;-56
2023/03/18 05:43:20;;;;;;;10.18;3.20;;;9.00;99.90;;;;;;5061461;28;20397;-56
2023/03/18 05:45:47;;;;;;;8.98;2.80;;;8.90;99.90;;;;;;5058392;28;20375;-56
2023/03/18 05:48:13;;;;;;;7.82;2.60;;;8.80;99.90;;;;;;5058795;28;20956;-56
2023/03/18 05:50:41;;;;;;;6.72;2.63;;;8.70;99.90;;;;;;5057558;28;20472;-56
2023/03/18 05:53:07;;;;;;;8.73;2.80;;;8.60;99.90;;;;;;5058606;28;20902;-57
2023/03/18 05:55:34;;;;;;;8.32;3.00;;;8.40;99.90;;;;;;5059737;28;20416;-55
2023/03/18 05:58:00;;;;;;;8.48;2.50;;;8.50;99.90;;;;;;5058508;28;20488;-56
2023/03/18 06:00:29;;;;;;;7.70;2.90;;;9.80;99.90;;;;;;5058215;28;20396;-60
2023/03/18 06:02:57;;;;;;;8.67;2.30;;;8.80;99.90;;;;;;5060200;28;20446;-56
2023/03/18 06:05:23;;;;;;;7.22;2.75;;;9.00;99.90;;;;;;5059434;28;20460;-56
2023/03/18 06:07:49;;;;;;;7.30;2.30;;;9.20;99.90;;;;;;5057220;28;20512;-56
2023/03/18 06:10:15;;;;;;;6.80;2.22;;;9.30;99.90;;;;;;5055805;28;20930;-57
2023/03/18 06:12:43;;;;;;;7.53;2.33;;;9.40;99.90;;;;;;5058464;28;20384;-56
2023/03/18 06:15:10;;;;;;;8.43;2.50;;;9.40;99.90;;;;;;5059975;28;20881;-56
2023/03/18 06:17:37;;;;;;;8.63;3.20;;;9.50;99.90;;;;;;5054963;28;20425;-56
2023/03/18 06:20:04;;;;;;;10.13;3.67;;;9.60;99.90;;;;;;5059131;28;20389;-57
2023/03/18 06:22:31;;;;;;;8.07;3.28;;;9.60;99.90;;;;;;5038702;28;20434;-56
2023/03/18 06:24:57;;;;;;;9.15;2.83;;;10.70;99.90;;;;;;5045743;28;20419;-57
2023/03/18 06:27:23;;;;;;;8.73;3.10;;;9.80;99.90;;;;;;5046896;28;20416;-56
2023/03/18 06:29:49;;;;;;;11.60;2.95;;;9.80;99.90;;;;;;5047515;28;20413;-57
2023/03/18 06:32:14;;;;;;;9.90;3.50;;;10.00;99.90;;;;;;5049852;28;20428;-56
2023/03/18 06:34:40;;;;;;;10.00;4.10;;;10.40;99.90;;;;;;5055376;28;20490;-56
2023/03/18 06:37:06;;;;;;;9.68;3.10;;;10.90;99.90;;;;;;5046652;28;20409;-58
2023/03/18 06:39:33;;;;;;;9.60;3.20;;;11.50;99.90;;;;;;5047568;28;20918;-57
2023/03/18 06:41:59;;;;;;;11.00;3.35;;;12.30;99.90;;;;;;5045233;28;20861;-57
2023/03/18 06:44:25;;;;;;;11.10;3.90;;;12.80;99.90;;;;;;5048251;28;20920;-60
2023/03/18 06:46:51;;;;;;;7.70;3.23;;;13.30;99.90;;;;;;5048710;28;20370;-57
2023/03/18 06:49:17;;;;;;;8.35;3.40;;;13.40;99.90;;;;;;5044995;28;20406;-58
2023/03/18 06:51:42;;;;;;;8.80;3.60;;;13.70;99.90;;;;;;5048352;28;20376;-58
2023/03/18 06:54:09;;;;;;;7.97;3.60;;;13.90;99.90;;;;;;5066970;28;20404;-57
2023/03/18 06:56:37;;;;;;;8.85;3.40;;;14.90;99.90;;;;;;5058953;28;20417;-58
2023/03/18 06:59:04;;;;;;;7.50;3.80;;;16.10;99.90;;;;;;5047844;28;20401;-58
2023/03/18 07:01:31;;;;;;;9.10;3.72;;;16.60;99.90;;;;;;5051040;28;20421;-62
2023/03/18 07:03:59;;;;;;;10.00;4.10;;;17.00;99.90;;;;;;5049925;28;20447;-58
2023/03/18 07:06:25;;;;;;;9.20;4.38;;;17.70;99.90;;;;;;5046476;28;20878;-59
2023/03/18 07:08:51;;;;;;;9.60;4.30;;;18.60;99.90;;;;;;5053022;28;20892;-58
2023/03/18 07:11:17;;;;;;;7.68;3.30;;;19.70;99.90;;;;;;5053008;28;20386;-58
2023/03/18 07:13:43;;;;;;;10.32;4.18;;;20.30;99.90;;;;;;5051244;28;20416;-58
2023/03/18 07:16:09;;;;;;;13.83;4.80;;;20.90;99.90;;;;;;5051775;28;20411;-58
2023/03/18 07:18:36;;;;;;;10.80;7.20;;;21.30;99.90;;;;;;5051767;28;20404;-58
2023/03/18 07:21:02;;;;;;;8.38;4.57;;;21.70;99.90;;;;;;5056050;28;20492;-59
2023/03/18 07:23:28;;;;;;;10.23;4.05;;;22.00;99.90;;;;;;5052603;28;20758;-60
2023/03/18 07:25:54;;;;;;;6.90;3.45;;;22.60;99.90;;;;;;5051945;28;20881;-58
2023/03/18 07:28:20;;;;;;;10.48;9.43;;;23.20;99.90;;;;;;5052166;28;20465;-59
2023/03/18 07:30:46;;;;;;;11.10;9.90;;;23.80;99.90;;;;;;5051340;28;20741;-58
2023/03/18 07:33:11;;;;;;;15.25;13.85;;;23.90;99.90;;;;;;5038294;28;20475;-59
2023/03/18 07:35:39;;;;;;;10.20;9.40;;;24.40;99.90;;;;;;5051133;28;20393;-58
2023/03/18 07:38:06;;;;;;;14.00;12.80;;;24.00;99.90;;;;;;5052128;28;20431;-59
2023/03/18 07:40:31;;;;;;;10.35;9.45;;;23.80;99.90;;;;;;5050078;28;20859;-59
2023/03/18 07:42:57;;;;;;;11.20;10.20;;;24.40;99.90;;;;;;5052297;28;20381;-59
2023/03/18 07:45:23;;;;;;;12.00;10.90;;;24.60;99.90;;;;;;5053408;28;20400;-60
2023/03/18 07:47:49;;;;;;;10.37;9.47;;;24.00;99.90;;;;;;5047910;28;20402;-58
2023/03/18 07:50:15;;;;;;;10.93;10.03;;;24.20;99.90;;;;;;5051365;28;20389;-59
2023/03/18 07:52:41;;;;;;;12.25;11.05;;;25.00;99.90;;;;;;5049718;28;20450;-59
2023/03/18 07:55:08;;;;;;;15.05;13.85;;;25.20;99.90;;;;;;5056866;28;20392;-59
2023/03/18 07:57:34;;;;;;;16.17;14.68;;;26.60;99.90;;;;;;5071583;28;20457;-59
2023/03/18 08:00:00;;;;;;;16.20;14.90;;;26.40;99.90;;;;;;5053022;28;20394;-59
2023/03/18 08:02:27;;;;;;;18.60;17.17;;;26.80;99.90;;;;;;5047883;28;20409;-59
2023/03/18 08:04:53;;;;;;;16.73;15.52;;;27.80;99.90;;;;;;5050766;28;20421;-59
2023/03/18 08:07:19;;;;;;;20.13;18.52;;;28.50;99.90;;;;;;5051355;28;20411;-60
2023/03/18 08:09:44;;;;;;;12.93;11.83;;;29.00;99.90;;;;;;5050871;28;20431;-59
2023/03/18 08:12:10;;;;;;;12.37;11.30;;;28.60;99.90;;;;;;5049164;28;20393;-59
2023/03/18 08:14:36;;;;;;;9.97;6.03;;;27.80;99.90;;;;;;5051319;28;20882;-59
2023/03/18 08:17:02;;;;;;;6.60;2.30;;;26.10;99.90;;;;;;5051502;28;20399;-59
2023/03/18 08:19:28;;;;;;;9.77;3.20;;;25.60;99.90;;;;;;5051248;28;20393;-64
2023/03/18 08:21:54;;;;;;;6.00;1.63;;;25.40;99.90;;;;;;5049416;28;20402;-59
2023/03/18 08:24:20;;;;;;;6.50;1.70;;;25.90;99.90;;;;;;5052017;28;20493;-59
2023/03/18 08:26:46;;;;;;;6.15;1.95;;;25.60;99.90;;;;;;5050681;28;20472;-59
2023/03/18 08:29:12;;;;;;;6.32;1.90;;;25.60;99.90;;;;;;5051813;28;20500;-59
2023/03/18 08:31:37;;;;;;;7.00;2.30;;;25.60;99.90;;;;;;5050278;28;20409;-59
2023/03/18 08:34:03;;;;;;;5.40;1.30;;;26.00;99.90;;;;;;5051469;28;20980;-59
2023/03/18 08:36:30;;;;;;;12.03;10.80;;;25.50;99.90;;;;;;5050472;28;20753;-59
2023/03/18 08:38:55;;;;;;;11.40;10.30;;;25.20;99.90;;;;;;5058345;28;20938;-59
2023/03/18 08:41:24;;;;;;;12.20;11.00;;;25.50;99.90;;;;;;5056493;28;20382;-60
2023/03/18 08:43:51;;;;;;;11.50;10.50;;;25.80;99.90;;;;;;5054987;28;20417;-59
2023/03/18 08:46:17;;;;;;;12.05;11.05;;;26.30;99.90;;;;;;5054227;28;20397;-59
2023/03/18 08:48:43;;;;;;;11.60;10.60;;;26.50;99.90;;;;;;5032587;28;20751;-60
2023/03/18 08:51:13;;;;;;;11.32;10.43;;;25.00;99.90;;;;;;5051275;28;20739;-59
2023/03/18 08:53:39;;;;;;;11.57;10.57;;;25.50;99.90;;;;;;5050275;28;20491;-64
2023/03/18 08:56:05;;;;;;;10.87;9.97;;;26.20;99.90;;;;;;5051406;28;20381;-59
2023/03/18 08:58:31;;;;;;;10.57;9.57;;;26.70;99.90;;;;;;5053591;28;20897;-64
2023/03/18 09:00:57;;;;;;;11.97;10.97;;;27.10;99.90;;;;;;5050168;28;20409;-59
2023/03/18 09:03:23;;;;;;;11.23;10.23;;;27.70;99.90;;;;;;5051047;28;20527;-61
2023/03/18 09:05:51;;;;;;;13.15;11.90;;;28.30;99.90;;;;;;5049826;28;21083;-59
2023/03/18 09:08:17;;;;;;;14.60;13.18;;;28.20;99.90;;;;;;5050597;28;20385;-57
2023/03/18 09:10:49;;;;;;;11.90;10.30;;;27.90;99.90;;;;;;5049947;28;20405;-59
2023/03/18 09:13:15;;;;;;;15.90;14.70;;;29.00;99.90;;;;;;5050689;28;20409;-60
2023/03/18 09:15:41;;;;;;;12.77;11.67;;;30.10;99.90;;;;;;5051998;28;20393;-60
2023/03/18 09:18:07;;;;;;;12.80;11.60;;;30.20;99.90;;;;;;5057285;28;20977;-60
2023/03/18 09:20:32;;;;;;;13.25;12.15;;;30.60;99.90;;;;;;5049674;28;20866;-64
2023/03/18 09:22:58;;;;;;;12.03;11.03;;;29.90;99.90;;;;;;5050410;28;20432;-60
2023/03/18 09:25:25;;;;;;;5.55;2.15;;;29.20;99.90;;;;;;5049617;28;20370;-59
2023/03/18 09:27:51;;;;;;;5.80;1.00;;;28.90;99.90;;;;;;5049399;28;20671;-60
2023/03/18 09:30:17;;;;;;;6.20;1.27;;;28.40;99.90;;;;;;5052065;28;20928;-60
2023/03/18 09:32:43;;;;;;;8.80;1.93;;;28.70;99.90;;;;;;5069251;28;20371;-60
2023/03/18 09:35:09;;;;;;;6.90;1.40;;;28.60;99.90;;;;;;5066288;28;20938;-60
2023/03/18 09:37:35;;;;;;;7.05;1.80;;;28.80;99.90;;;;;;5049269;28;20881;-60
2023/03/18 09:40:02;;;;;;;9.80;2.40;;;29.10;99.90;;;;;;5054761;28;20427;-60
2023/03/18 09:42:46;;;;;;;6.60;2.13;;;30.20;99.90;;;;;;5061237;28;20482;-60
2023/03/18 09:45:29;;;;;;;6.30;2.17;;;30.40;99.90;;;;;;5050272;28;20751;-60
2023/03/18 09:48:06;;;;;;;5.85;1.50;;;29.90;99.90;;;;;;5049352;28;20712;-61
2023/03/18 09:50:44;;;;;;;7.43;1.75;;;30.30;99.90;;;;;;5049588;28;20427;-66
2023/03/18 09:53:16;;;;;;;6.00;1.58;;;30.60;99.90;;;;;;5049529;28;20432;-60
2023/03/18 09:55:46;;;;;;;7.43;1.50;;;31.20;99.90;;;;;;5067939;28;20384;-60
2023/03/18 09:58:28;;;;;;;6.32;1.60;;;30.80;99.90;;;;;;5069788;28;20388;-61
2023/03/18 10:01:03;;;;;;;6.55;1.83;;;30.00;99.90;;;;;;5033763;28;20433;-62
2023/03/18 10:03:41;;;;;;;7.40;1.10;;;30.90;99.90;;;;;;5049885;28;20468;-66
2023/03/18 10:06:18;;;;;;;5.20;1.30;;;31.70;99.90;;;;;;5050010;28;20393;-61
2023/03/18 10:09:13;;;;;;;5.75;1.20;;;31.40;99.90;;;;;;5048569;28;20389;-60
2023/03/18 10:11:43;;;;;;;6.82;1.35;;;32.00;99.90;;;;;;5057581;28;20387;-60
2023/03/18 10:14:30;;;;;;;6.60;1.30;;;30.80;99.90;;;;;;5058358;28;20894;-60
2023/03/18 10:17:21;;;;;;;7.10;1.42;;;29.90;99.90;;;;;;5045629;28;20520;-60
2023/03/18 10:19:56;;;;;;;6.57;1.40;;;29.40;99.90;;;;;;5048141;28;20726;-60
2023/03/18 10:22:55;;;;;;;8.30;1.55;;;29.60;99.90;;;;;;5049387;28;20391;-62
2023/03/18 10:25:29;;;;;;;7.27;1.47;;;28.90;99.90;;;;;;5069058;28;20395;-60
2023/03/18 10:28:14;;;;;;;7.82;1.40;;;28.60;99.90;;;;;;5068353;28;20412;-60
2023/03/18 10:30:55;;;;;;;7.00;1.50;;;29.40;99.90;;;;;;5069192;28;20391;-59
2023/03/18 10:33:35;;;;;;;8.80;1.70;;;30.60;99.90;;;;;;5068942;28;20407;-60
2023/03/18 10:36:30;;;;;;;15.25;7.82;;;30.50;99.90;;;;;;5073130;28;20906;-61
2023/03/18 10:38:58;;;;;;;11.90;9.40;;;29.10;99.90;;;;;;5075534;28;20852;-60
2023/03/18 10:41:36;;;;;;;7.70;2.40;;;28.30;99.90;;;;;;5076159;28;20375;-60
2023/03/18 10:44:23;;;;;;;7.18;2.30;;;28.40;99.90;;;;;;5076272;28;20387;-60
2023/03/18 10:47:18;;;;;;;8.87;2.30;;;28.10;99.90;;;;;;5074852;28;20422;-60
2023/03/18 10:50:09;;;;;;;10.50;9.33;;;28.00;99.90;;;;;;5073279;28;20510;-60
2023/03/18 10:52:46;;;;;;;11.73;10.35;;;28.30;99.90;;;;;;5075609;28;20395;-60
2023/03/18 10:55:16;;;;;;;10.80;9.85;;;27.90;99.90;;;;;;5075960;28;20402;-60
2023/03/18 10:57:42;;;;;;;11.07;10.07;;;27.60;99.90;;;;;;5075114;28;20386;-60
2023/03/18 11:00:31;;;;;;;11.93;10.68;;;27.60;99.90;;;;;;5076217;28;20388;-60
2023/03/18 11:02:57;;;;;;;13.47;12.20;;;27.60;99.90;;;;;;5075719;28;20387;-60
2023/03/18 11:05:27;;;;;;;10.85;9.95;;;27.60;99.90;;;;;;5076185;28;20458;-60
2023/03/18 11:08:02;;;;;;;10.57;9.60;;;27.30;99.90;;;;;;5075529;28;20884;-59
2023/03/18 11:10:33;;;;;;;10.57;9.48;;;28.10;99.90;;;;;;5076221;28;20734;-60
2023/03/18 11:13:03;;;;;;;10.55;9.55;;;27.90;99.90;;;;;;5074141;28;20431;-60
2023/03/18 11:15:34;;;;;;;10.60;9.70;;;27.80;99.90;;;;;;5056137;28;20420;-60
2023/03/18 11:18:02;;;;;;;10.63;9.60;;;27.80;99.90;;;;;;5055722;28;20519;-58
2023/03/18 11:20:59;;;;;;;10.05;9.05;;;27.60;99.90;;;;;;5056075;28;20382;-64
2023/03/18 11:23:47;;;;;;;10.30;9.30;;;27.20;99.90;;;;;;5055660;28;20397;-58
2023/03/18 11:26:23;;;;;;;9.10;8.20;;;27.90;99.90;;;;;;5055942;28;20415;-58
2023/03/18 11:28:57;;;;;;;10.30;8.00;;;27.80;99.90;;;;;;5054711;28;20413;-58
2023/03/18 11:31:23;;;;;;;9.10;8.20;;;27.80;99.90;;;;;;5056335;28;20920;-58
2023/03/18 11:33:49;;;;;;;9.20;8.30;;;27.80;99.90;;;;;;5054444;28;20440;-59
2023/03/18 11:36:21;;;;;;;9.60;8.43;;;27.00;99.90;;;;;;5055574;28;20423;-59
2023/03/18 11:39:00;;;;;;;9.63;8.30;;;26.30;99.90;;;;;;5054385;28;20758;-59
2023/03/18 11:41:28;;;;;;;9.93;8.20;;;25.30;99.90;;;;;;5055180;28;20762;-58
2023/03/18 11:43:55;;;;;;;9.95;8.55;;;24.60;99.90;;;;;;5054946;28;20483;-58
2023/03/18 11:46:36;;;;;;;9.63;8.38;;;24.10;99.90;;;;;;5055776;28;20388;-58
2023/03/18 11:49:02;;;;;;;8.70;7.90;;;23.70;99.90;;;;;;5052280;28;20440;-58
2023/03/18 11:51:59;;;;;;;10.75;8.40;;;23.50;99.90;;;;;;5052585;28;20429;-57
2023/03/18 11:55:07;;;;;;;10.90;9.30;;;23.50;99.90;;;;;;5052316;28;20417;-58
2023/03/18 11:57:51;;;;;;;9.20;8.30;;;22.90;99.90;;;;;;5018291;28;20897;-63
2023/03/18 12:00:35;;;;;;;10.60;8.15;;;22.80;99.90;;;;;;5052417;28;20788;-58
2023/03/18 12:03:02;;;;;;;9.00;8.10;;;22.90;99.90;;;;;;5052141;28;20457;-58
2023/03/18 12:05:50;;;;;;;10.30;9.30;;;22.90;99.90;;;;;;5051804;28;20485;-58
2023/03/18 12:08:30;;;;;;;10.50;9.60;;;23.00;99.90;;;;;;5051875;28;20373;-58
2023/03/18 12:11:22;;;;;;;10.60;9.50;;;22.80;99.90;;;;;;5033087;28;20759;-59
2023/03/18 12:14:25;;;;;;;9.50;8.50;;;22.80;99.90;;;;;;5050914;28;20409;-60
2023/03/18 12:16:59;;;;;;;8.45;7.40;;;23.00;99.90;;;;;;5051355;28;20396;-59
2023/03/18 12:19:42;;;;;;;9.52;8.57;;;22.90;99.90;;;;;;5051850;28;20853;-59
2023/03/18 12:22:32;;;;;;;9.30;8.50;;;23.00;99.90;;;;;;5051744;28;20793;-59
2023/03/18 12:25:13;;;;;;;9.82;8.73;;;23.00;99.90;;;;;;5051760;28;20385;-59
2023/03/18 12:27:44;;;;;;;8.70;7.90;;;23.10;99.90;;;;;;5051132;28;20425;-59
2023/03/18 12:30:26;;;;;;;9.10;8.20;;;22.90;99.90;;;;;;5051617;28;20392;-59
2023/03/18 12:33:22;;;;;;;10.90;8.30;;;22.70;99.90;;;;;;5050754;28;20626;-59
2023/03/18 12:35:51;;;;;;;9.52;8.63;;;22.90;99.90;;;;;;5049409;28;20431;-59
2023/03/18 12:38:53;;;;;;;8.70;7.90;;;22.90;99.90;;;;;;5051546;28;20416;-59
2023/03/18 12:41:37;;;;;;;8.95;8.00;;;23.10;99.90;;;;;;5051586;28;20389;-60
2023/03/18 12:44:21;;;;;;;9.50;8.50;;;23.20;99.90;;;;;;5051659;28;20389;-59
2023/03/18 12:47:14;;;;;;;9.82;8.82;;;23.20;99.90;;;;;;5050770;28;20377;-60
2023/03/18 12:50:05;;;;;;;9.90;8.95;;;22.70;99.90;;;;;;5050352;28;20810;-59
2023/03/18 12:52:43;;;;;;;10.02;9.10;;;22.50;99.90;;;;;;5051513;28;20389;-58
2023/03/18 12:55:17;;;;;;;10.50;9.23;;;22.60;99.90;;;;;;5050864;28;20409;-58
2023/03/18 12:57:53;;;;;;;9.95;8.98;;;22.30;99.90;;;;;;5051100;28;20405;-58
2023/03/18 13:00:19;;;;;;;12.10;9.18;;;22.20;99.90;;;;;;5050047;28;20401;-58